Time;durP1;ratioP1;P1;durP2;ratioP2;P2;SDS_P1;SDS_P2;PMS_P1;PMS_P2;Temp;Humidity;BMP_temperature;BMP_pressure;BME280_temperature;BME280_humidity;BME280_pressure;Samples;Min_cycle;Max_cycle;Signal;HPM_P1;HPM_P2
2021/08/13 00:01:02;;;;;;;10.47;9.47;;;18.60;99.90;;;;;;5024301;28;20192;-44
2021/08/13 00:03:29;;;;;;;11.43;9.77;;;18.60;99.90;;;;;;5004947;28;20239;-45
2021/08/13 00:05:57;;;;;;;11.63;10.43;;;18.50;99.90;;;;;;5023711;28;20216;-46
2021/08/13 00:08:23;;;;;;;10.27;9.30;;;18.40;99.90;;;;;;5021154;28;20207;-46
2021/08/13 00:10:50;;;;;;;11.87;10.10;;;18.40;99.90;;;;;;5023601;28;20195;-47
2021/08/13 00:13:18;;;;;;;10.90;9.83;;;18.40;99.90;;;;;;5022373;28;20202;-47
2021/08/13 00:15:44;;;;;;;10.70;9.70;;;18.40;99.90;;;;;;5022653;28;20184;-44
2021/08/13 00:18:11;;;;;;;11.13;10.03;;;18.40;99.90;;;;;;5007904;28;20208;-48
2021/08/13 00:20:38;;;;;;;11.13;10.00;;;18.40;99.90;;;;;;5020458;28;20194;-44
2021/08/13 00:23:05;;;;;;;11.93;10.90;;;18.30;99.90;;;;;;5023882;28;20665;-45
2021/08/13 00:25:32;;;;;;;11.93;10.80;;;18.40;99.90;;;;;;5020039;28;20203;-44
2021/08/13 00:27:59;;;;;;;10.53;9.53;;;18.40;99.90;;;;;;5023823;28;20657;-45
2021/08/13 00:30:26;;;;;;;10.50;9.33;;;18.50;99.90;;;;;;5020409;28;20239;-46
2021/08/13 00:32:52;;;;;;;11.47;10.27;;;18.50;99.90;;;;;;5023807;28;20604;-46
2021/08/13 00:35:20;;;;;;;11.20;9.43;;;18.40;99.90;;;;;;5004452;28;20319;-50
2021/08/13 00:37:47;;;;;;;10.40;9.30;;;18.50;99.90;;;;;;5004903;28;20188;-46
2021/08/13 00:40:16;;;;;;;9.80;8.80;;;18.50;99.90;;;;;;5004435;28;20228;-48
2021/08/13 00:42:44;;;;;;;13.17;9.30;;;18.50;99.90;;;;;;5021578;28;20233;-45
2021/08/13 00:45:11;;;;;;;12.93;10.40;;;18.40;99.90;;;;;;5005510;28;20287;-47
2021/08/13 00:47:50;;;;;;;10.67;9.50;;;18.40;99.90;;;;;;5023417;28;20191;-46
2021/08/13 00:50:30;;;;;;;10.90;9.90;;;18.30;99.90;;;;;;4986230;28;20537;-45
2021/08/13 00:52:59;;;;;;;10.40;9.00;;;18.30;99.90;;;;;;5005891;28;20196;-45
2021/08/13 00:55:27;;;;;;;11.47;9.23;;;18.40;99.90;;;;;;5001921;28;20633;-47
2021/08/13 00:58:04;;;;;;;11.07;10.07;;;18.40;99.90;;;;;;5023782;28;20199;-49
2021/08/13 01:01:06;;;;;;;11.07;9.97;;;18.40;99.90;;;;;;5004106;28;20554;-45
2021/08/13 01:03:34;;;;;;;10.50;9.50;;;18.40;99.90;;;;;;5019700;28;20939;-45
2021/08/13 01:06:04;;;;;;;11.17;9.37;;;18.40;99.90;;;;;;4978393;28;20266;-45
2021/08/13 01:08:32;;;;;;;11.03;10.00;;;18.40;99.90;;;;;;5000680;28;20216;-45
2021/08/13 01:11:15;;;;;;;10.77;9.63;;;18.40;99.90;;;;;;4986192;28;20608;-45
2021/08/13 01:13:50;;;;;;;12.20;10.90;;;18.40;99.90;;;;;;4984414;28;20219;-46
2021/08/13 01:16:19;;;;;;;11.17;10.03;;;18.40;99.90;;;;;;4983852;28;20192;-49
2021/08/13 01:18:50;;;;;;;11.57;10.50;;;18.40;99.90;;;;;;4983181;28;20228;-48
2021/08/13 01:21:29;;;;;;;10.67;9.53;;;18.30;99.90;;;;;;4976188;28;20211;-46
2021/08/13 01:24:04;;;;;;;10.53;9.53;;;18.40;99.90;;;;;;5004695;28;20219;-50
2021/08/13 01:26:35;;;;;;;13.27;10.53;;;18.30;99.90;;;;;;5001511;28;20212;-46
2021/08/13 01:29:11;;;;;;;10.47;9.47;;;18.30;99.90;;;;;;5004551;28;20270;-47
2021/08/13 01:31:47;;;;;;;11.47;10.37;;;18.30;99.90;;;;;;5005951;28;20196;-45
2021/08/13 01:34:18;;;;;;;12.13;10.70;;;18.40;99.90;;;;;;5002907;28;20283;-50
2021/08/13 01:36:49;;;;;;;12.03;10.83;;;18.40;99.90;;;;;;4988863;28;20342;-45
2021/08/13 01:39:17;;;;;;;10.97;9.97;;;18.40;99.90;;;;;;5005688;28;20219;-48
2021/08/13 01:41:45;;;;;;;10.90;9.77;;;18.40;99.90;;;;;;5009069;28;20228;-45
2021/08/13 01:44:14;;;;;;;11.57;10.47;;;18.30;99.90;;;;;;5015765;28;20203;-45
2021/08/13 01:46:43;;;;;;;12.23;10.80;;;18.30;99.90;;;;;;5028832;28;20223;-45
2021/08/13 01:49:11;;;;;;;15.03;13.43;;;18.30;99.90;;;;;;5044149;28;20298;-46
2021/08/13 01:51:39;;;;;;;15.90;13.63;;;18.30;99.90;;;;;;5004267;28;20863;-45
2021/08/13 01:54:07;;;;;;;13.40;12.17;;;18.30;99.90;;;;;;5024697;28;20180;-49
2021/08/13 01:56:39;;;;;;;14.93;12.97;;;18.30;99.90;;;;;;5008168;28;20291;-45
2021/08/13 01:59:05;;;;;;;14.30;12.90;;;18.30;99.90;;;;;;5024884;28;20223;-47
2021/08/13 02:01:34;;;;;;;16.70;12.90;;;18.30;99.90;;;;;;5007235;28;20192;-45
2021/08/13 02:04:02;;;;;;;14.63;13.23;;;18.30;99.90;;;;;;5004880;28;20192;-49
2021/08/13 02:06:30;;;;;;;14.33;12.87;;;18.30;99.90;;;;;;5001774;28;20200;-45
2021/08/13 02:09:02;;;;;;;14.70;13.20;;;18.30;99.90;;;;;;4992727;28;20231;-49
2021/08/13 02:11:35;;;;;;;14.87;13.40;;;18.30;99.90;;;;;;5007074;28;20199;-45
2021/08/13 02:14:02;;;;;;;15.40;13.83;;;18.30;99.90;;;;;;5007879;28;20200;-46
2021/08/13 02:16:31;;;;;;;15.43;13.83;;;18.40;99.90;;;;;;5023934;28;20180;-46
2021/08/13 02:19:04;;;;;;;16.03;14.10;;;18.40;99.90;;;;;;5009002;28;20688;-48
2021/08/13 02:21:37;;;;;;;15.83;14.27;;;18.40;99.90;;;;;;5006623;28;20191;-46
2021/08/13 02:24:06;;;;;;;15.27;13.67;;;18.30;99.90;;;;;;4992101;28;20212;-49
2021/08/13 02:26:33;;;;;;;15.70;14.03;;;18.40;99.90;;;;;;5006181;28;20930;-45
2021/08/13 02:29:01;;;;;;;14.10;12.67;;;18.30;99.90;;;;;;5007729;28;20651;-46
2021/08/13 02:31:29;;;;;;;13.00;11.63;;;18.40;99.90;;;;;;5005737;28;20196;-50
2021/08/13 02:33:57;;;;;;;13.33;10.80;;;18.40;99.90;;;;;;5008522;28;20204;-45
2021/08/13 02:36:30;;;;;;;14.10;12.70;;;18.40;99.90;;;;;;5004233;28;20352;-48
2021/08/13 02:39:01;;;;;;;14.37;12.97;;;18.40;99.90;;;;;;4992502;28;20310;-48
2021/08/13 02:41:32;;;;;;;13.37;11.97;;;18.30;99.90;;;;;;5022189;28;20192;-46
2021/08/13 02:44:02;;;;;;;12.33;10.97;;;18.30;99.90;;;;;;5007311;28;20199;-48
2021/08/13 02:46:32;;;;;;;12.87;11.57;;;18.20;99.90;;;;;;5005731;28;20212;-46
2021/08/13 02:49:01;;;;;;;12.50;11.30;;;18.20;99.90;;;;;;5007647;28;20224;-49
2021/08/13 02:51:31;;;;;;;12.60;11.30;;;18.20;99.90;;;;;;5005578;28;20203;-47
2021/08/13 02:53:59;;;;;;;12.07;10.87;;;18.30;99.90;;;;;;4992492;28;20584;-48
2021/08/13 02:56:29;;;;;;;12.90;11.50;;;18.20;99.90;;;;;;5004781;28;20275;-45
2021/08/13 02:59:02;;;;;;;13.10;11.90;;;18.30;99.90;;;;;;5007550;28;20270;-51
2021/08/13 03:01:32;;;;;;;13.70;12.30;;;18.20;99.90;;;;;;5005311;28;20192;-45
2021/08/13 03:04:01;;;;;;;13.43;12.13;;;18.20;99.90;;;;;;5007393;28;20270;-47
2021/08/13 03:06:32;;;;;;;13.70;12.30;;;18.20;99.90;;;;;;5022619;28;20216;-46
2021/08/13 03:09:01;;;;;;;16.67;11.63;;;18.20;99.90;;;;;;5003895;28;20216;-47
2021/08/13 03:11:30;;;;;;;12.40;11.13;;;18.20;99.90;;;;;;4994028;28;20517;-48
2021/08/13 03:13:59;;;;;;;12.37;11.17;;;18.20;99.90;;;;;;5007404;28;20278;-52
2021/08/13 03:16:30;;;;;;;13.30;12.00;;;18.20;99.90;;;;;;5005120;28;20188;-50
2021/08/13 03:18:59;;;;;;;12.00;10.90;;;18.10;99.90;;;;;;5007224;28;20299;-48
2021/08/13 03:21:26;;;;;;;12.63;11.23;;;18.00;99.90;;;;;;5004508;28;20697;-47
2021/08/13 03:23:54;;;;;;;12.40;11.10;;;18.00;99.90;;;;;;5008013;28;20207;-45
2021/08/13 03:26:22;;;;;;;13.70;12.17;;;17.90;99.90;;;;;;5002733;28;20200;-45
2021/08/13 03:28:49;;;;;;;12.87;11.67;;;17.90;99.90;;;;;;4998610;28;20246;-51
2021/08/13 03:31:34;;;;;;;13.00;11.60;;;17.90;99.90;;;;;;5003823;28;20215;-47
2021/08/13 03:34:02;;;;;;;11.50;10.40;;;17.90;99.90;;;;;;5000860;28;20197;-52
2021/08/13 03:36:30;;;;;;;12.20;10.90;;;17.80;99.90;;;;;;5000900;28;20546;-46
2021/08/13 03:38:58;;;;;;;12.53;11.23;;;17.90;99.90;;;;;;5004481;28;20227;-49
2021/08/13 03:41:25;;;;;;;13.10;11.70;;;17.80;99.90;;;;;;4990262;28;20220;-45
2021/08/13 03:43:53;;;;;;;14.67;11.20;;;17.80;99.90;;;;;;5004989;28;20196;-49
2021/08/13 03:46:19;;;;;;;12.80;11.60;;;17.70;99.90;;;;;;5022201;28;20273;-45
2021/08/13 03:48:50;;;;;;;14.17;12.73;;;17.60;99.90;;;;;;5006783;28;20403;-49
2021/08/13 03:51:17;;;;;;;12.77;11.40;;;17.60;99.90;;;;;;5003782;28;20929;-45
2021/08/13 03:53:43;;;;;;;13.17;11.77;;;17.60;99.90;;;;;;5024315;28;20192;-45
2021/08/13 03:56:10;;;;;;;13.07;11.63;;;17.60;99.90;;;;;;5020862;28;20180;-47
2021/08/13 03:58:37;;;;;;;14.43;11.47;;;17.50;99.90;;;;;;4991392;28;20224;-45
2021/08/13 04:01:07;;;;;;;13.40;12.10;;;17.50;99.90;;;;;;4995824;28;20217;-45
2021/08/13 04:03:35;;;;;;;11.83;10.77;;;17.50;99.90;;;;;;5002827;28;20192;-44
2021/08/13 04:06:04;;;;;;;13.43;12.03;;;17.50;99.90;;;;;;5002048;28;20204;-47
2021/08/13 04:08:31;;;;;;;12.93;11.60;;;17.40;99.90;;;;;;5001458;28;20631;-44
2021/08/13 04:10:58;;;;;;;15.93;12.77;;;17.50;99.90;;;;;;5004448;28;20196;-47
2021/08/13 04:13:25;;;;;;;13.90;12.00;;;17.50;99.90;;;;;;5007535;28;20195;-44
2021/08/13 04:15:58;;;;;;;11.80;10.73;;;17.50;99.90;;;;;;5003999;28;20280;-48
2021/08/13 04:18:25;;;;;;;13.20;11.80;;;17.50;99.90;;;;;;5005412;28;20301;-45
2021/08/13 04:20:54;;;;;;;14.60;12.97;;;17.50;99.90;;;;;;5005347;28;20196;-46
2021/08/13 04:23:22;;;;;;;15.00;12.53;;;17.50;99.90;;;;;;4999613;28;20370;-48
2021/08/13 04:25:49;;;;;;;14.00;12.13;;;17.40;99.90;;;;;;5023845;28;20210;-49
2021/08/13 04:28:15;;;;;;;14.57;11.80;;;17.30;99.90;;;;;;5005842;28;20219;-45
2021/08/13 04:30:42;;;;;;;13.93;12.07;;;17.40;99.90;;;;;;5005539;28;20188;-47
2021/08/13 04:33:11;;;;;;;13.33;11.93;;;17.40;99.90;;;;;;5002522;28;20192;-45
2021/08/13 04:35:43;;;;;;;14.83;13.13;;;17.40;99.90;;;;;;5005521;28;20202;-46
2021/08/13 04:38:10;;;;;;;14.20;12.73;;;17.30;99.90;;;;;;5002490;28;20184;-46
2021/08/13 04:40:38;;;;;;;15.17;12.83;;;17.30;99.90;;;;;;5000840;28;20776;-45
2021/08/13 04:43:07;;;;;;;14.70;13.23;;;17.30;99.90;;;;;;5000755;28;20208;-45
2021/08/13 04:45:34;;;;;;;13.97;12.53;;;17.30;99.90;;;;;;4990264;28;20580;-45
2021/08/13 04:48:01;;;;;;;15.07;13.30;;;17.30;99.90;;;;;;5020799;28;20226;-50
2021/08/13 04:50:29;;;;;;;14.47;13.07;;;17.30;99.90;;;;;;5004767;28;20196;-45
2021/08/13 04:53:02;;;;;;;15.60;13.87;;;17.20;99.90;;;;;;5002355;28;20207;-48
2021/08/13 04:55:29;;;;;;;15.83;13.20;;;17.30;99.90;;;;;;5001045;28;20685;-44
2021/08/13 04:57:59;;;;;;;17.00;13.43;;;17.30;99.90;;;;;;4993736;28;20196;-44
2021/08/13 05:00:26;;;;;;;14.53;13.07;;;17.30;99.90;;;;;;4986035;28;20223;-47
2021/08/13 05:02:59;;;;;;;14.60;12.83;;;17.40;99.90;;;;;;5001350;28;20214;-44
2021/08/13 05:05:25;;;;;;;15.30;12.97;;;17.40;99.90;;;;;;4998594;28;20290;-48
2021/08/13 05:07:52;;;;;;;17.37;13.50;;;17.40;99.90;;;;;;5004292;28;20221;-44
2021/08/13 05:10:19;;;;;;;15.70;14.03;;;17.40;99.90;;;;;;5002380;28;20219;-46
2021/08/13 05:12:46;;;;;;;14.97;13.53;;;17.40;99.90;;;;;;5000685;28;20206;-46
2021/08/13 05:15:15;;;;;;;18.97;14.13;;;17.40;99.90;;;;;;4986241;28;20751;-48
2021/08/13 05:17:44;;;;;;;17.40;15.53;;;17.40;99.90;;;;;;5000256;28;20192;-51
2021/08/13 05:20:11;;;;;;;18.20;15.63;;;17.40;99.90;;;;;;5000931;28;20247;-48
2021/08/13 05:22:41;;;;;;;15.60;13.50;;;17.50;99.90;;;;;;4997764;28;20288;-48
2021/08/13 05:25:11;;;;;;;16.80;15.17;;;17.50;99.90;;;;;;4990940;28;20216;-45
2021/08/13 05:27:38;;;;;;;17.33;15.53;;;17.60;99.90;;;;;;5000210;28;20232;-46
2021/08/13 05:30:09;;;;;;;16.63;14.93;;;17.60;99.90;;;;;;4986282;28;20273;-50
2021/08/13 05:32:40;;;;;;;16.90;15.27;;;17.70;99.90;;;;;;5005594;28;20223;-46
2021/08/13 05:35:07;;;;;;;21.10;16.83;;;17.80;99.90;;;;;;4997729;28;20924;-48
2021/08/13 05:37:35;;;;;;;20.53;15.47;;;17.80;99.90;;;;;;4993853;28;20924;-47
2021/08/13 05:40:01;;;;;;;16.03;14.33;;;17.90;99.90;;;;;;4998372;28;20230;-48
2021/08/13 05:42:28;;;;;;;18.20;15.87;;;17.90;99.90;;;;;;5011488;28;20949;-45
2021/08/13 05:44:55;;;;;;;20.80;16.87;;;18.00;99.90;;;;;;5018476;28;20210;-46
2021/08/13 05:47:21;;;;;;;19.47;17.47;;;18.10;99.90;;;;;;5001839;28;20231;-49
2021/08/13 05:49:49;;;;;;;19.00;17.10;;;18.10;99.90;;;;;;4999460;28;20219;-47
2021/08/13 05:52:16;;;;;;;20.93;18.20;;;18.20;99.90;;;;;;5009330;28;20196;-46
2021/08/13 05:54:43;;;;;;;21.03;18.90;;;18.30;99.90;;;;;;4996409;28;20911;-45
2021/08/13 05:57:10;;;;;;;21.57;18.23;;;18.40;99.90;;;;;;5016111;28;20196;-50
2021/08/13 05:59:36;;;;;;;20.57;17.63;;;18.50;99.90;;;;;;4996398;28;20226;-49
2021/08/13 06:02:03;;;;;;;21.27;18.97;;;18.60;99.90;;;;;;4978930;28;20208;-45
2021/08/13 06:04:30;;;;;;;19.67;17.43;;;18.70;99.90;;;;;;5022774;28;20200;-48
2021/08/13 06:06:59;;;;;;;22.83;18.67;;;18.80;99.90;;;;;;5001729;28;20258;-48
2021/08/13 06:09:25;;;;;;;21.43;18.07;;;18.90;99.90;;;;;;5022351;28;20231;-44
2021/08/13 06:11:52;;;;;;;19.27;17.20;;;19.00;99.90;;;;;;4984106;28;20220;-49
2021/08/13 06:14:19;;;;;;;21.80;18.07;;;19.10;99.90;;;;;;4999476;28;20240;-48
2021/08/13 06:16:45;;;;;;;19.33;17.10;;;19.20;99.90;;;;;;5006690;28;20196;-47
2021/08/13 06:19:13;;;;;;;18.90;16.90;;;19.30;99.90;;;;;;5001079;28;20220;-46
2021/08/13 06:21:40;;;;;;;18.03;16.13;;;19.40;99.90;;;;;;5000473;28;20198;-46
2021/08/13 06:24:08;;;;;;;18.43;16.37;;;19.50;99.90;;;;;;5002427;28;20286;-47
2021/08/13 06:26:36;;;;;;;18.60;16.37;;;19.60;99.90;;;;;;5004832;28;20196;-46
2021/08/13 06:29:03;;;;;;;20.90;16.37;;;19.70;99.90;;;;;;4999471;28;20222;-46
2021/08/13 06:31:30;;;;;;;17.60;13.90;;;19.80;99.90;;;;;;5007257;28;20192;-47
2021/08/13 06:33:57;;;;;;;15.70;13.60;;;19.90;99.90;;;;;;4988831;28;20218;-44
2021/08/13 06:36:26;;;;;;;15.17;13.23;;;20.00;99.90;;;;;;5007414;28;20630;-45
2021/08/13 06:38:53;;;;;;;14.67;13.27;;;20.10;99.90;;;;;;5003837;28;20204;-45
2021/08/13 06:41:21;;;;;;;15.50;12.63;;;20.20;99.90;;;;;;5008189;28;20248;-45
2021/08/13 06:44:14;;;;;;;11.47;10.23;;;20.30;99.90;;;;;;5006894;28;20227;-46
2021/08/13 06:46:41;;;;;;;10.50;9.50;;;20.40;99.90;;;;;;5023711;28;20204;-49
2021/08/13 06:49:08;;;;;;;13.97;9.77;;;20.50;99.90;;;;;;5006460;28;20231;-45
2021/08/13 06:51:34;;;;;;;8.83;8.03;;;20.60;99.90;;;;;;5006973;28;20208;-47
2021/08/13 06:54:02;;;;;;;10.43;7.93;;;20.70;99.90;;;;;;5005789;28;20192;-48
2021/08/13 06:56:31;;;;;;;9.33;7.70;;;20.90;99.90;;;;;;5008005;28;20200;-46
2021/08/13 06:58:58;;;;;;;7.93;7.23;;;21.00;99.90;;;;;;4998963;28;20224;-47
2021/08/13 07:01:24;;;;;;;9.57;7.60;;;21.10;99.90;;;;;;5007649;28;20633;-45
2021/08/13 07:03:51;;;;;;;8.07;7.27;;;21.10;99.90;;;;;;5003786;28;20283;-46
2021/08/13 07:06:18;;;;;;;8.33;7.00;;;21.30;99.90;;;;;;4992847;28;20681;-45
2021/08/13 07:08:44;;;;;;;9.93;6.73;;;21.30;99.90;;;;;;5004493;28;20323;-49
2021/08/13 07:11:12;;;;;;;7.60;6.83;;;21.40;99.90;;;;;;5006141;28;20290;-47
2021/08/13 07:13:40;;;;;;;8.23;7.47;;;21.50;99.90;;;;;;5003949;28;20200;-49
2021/08/13 07:16:08;;;;;;;8.23;6.70;;;21.60;99.90;;;;;;5003778;28;20250;-50
2021/08/13 07:18:36;;;;;;;10.57;6.93;;;21.60;99.90;;;;;;5005905;28;20216;-50
2021/08/13 07:21:03;;;;;;;7.77;6.97;;;21.70;99.90;;;;;;5007648;28;20192;-50
2021/08/13 07:23:30;;;;;;;6.73;5.97;;;21.80;99.90;;;;;;5007538;28;20712;-46
2021/08/13 07:25:58;;;;;;;7.40;6.70;;;21.90;99.90;;;;;;5004112;28;20184;-47
2021/08/13 07:28:25;;;;;;;7.40;6.40;;;21.90;99.90;;;;;;5005898;28;20337;-48
2021/08/13 07:30:53;;;;;;;8.37;5.70;;;22.00;99.90;;;;;;5015112;28;20334;-47
2021/08/13 07:33:24;;;;;;;8.57;7.07;;;22.00;99.90;;;;;;5007630;28;20247;-48
2021/08/13 07:35:51;;;;;;;6.83;6.00;;;22.00;99.90;;;;;;4987169;28;20208;-48
2021/08/13 07:38:18;;;;;;;8.20;7.40;;;22.00;99.90;;;;;;5007136;28;20258;-47
2021/08/13 07:40:44;;;;;;;7.10;6.40;;;22.00;99.90;;;;;;5003897;28;20900;-53
2021/08/13 07:43:11;;;;;;;8.37;6.20;;;22.00;99.90;;;;;;5006263;28;20196;-45
2021/08/13 07:45:38;;;;;;;7.63;7.03;;;22.10;99.90;;;;;;5000018;28;20294;-48
2021/08/13 07:48:06;;;;;;;8.02;7.03;;;22.10;99.90;;;;;;5022522;28;20223;-45
2021/08/13 07:50:33;;;;;;;8.17;7.47;;;22.20;99.90;;;;;;5021517;28;20669;-47
2021/08/13 07:53:00;;;;;;;8.75;6.85;;;22.20;99.90;;;;;;4992844;28;20192;-46
2021/08/13 07:55:30;;;;;;;7.55;6.93;;;22.30;99.90;;;;;;5007027;28;20200;-48
2021/08/13 07:57:57;;;;;;;7.43;6.63;;;22.30;99.90;;;;;;5002884;28;20191;-44
2021/08/13 08:00:23;;;;;;;7.70;6.63;;;22.30;99.90;;;;;;5002359;28;20609;-45
2021/08/13 08:02:51;;;;;;;9.80;7.60;;;22.40;99.90;;;;;;5014529;28;20870;-45
2021/08/13 08:05:19;;;;;;;8.87;7.13;;;22.50;99.90;;;;;;5024616;28;20242;-47
2021/08/13 08:07:46;;;;;;;7.00;6.37;;;22.50;99.90;;;;;;5005754;28;20220;-47
2021/08/13 08:10:12;;;;;;;8.52;7.40;;;22.60;99.90;;;;;;5023669;28;20277;-45
2021/08/13 08:12:39;;;;;;;7.78;6.47;;;22.60;99.90;;;;;;5022279;28;20808;-48
2021/08/13 08:15:07;;;;;;;9.50;7.60;;;22.70;99.90;;;;;;5022453;28;20200;-45
2021/08/13 08:17:33;;;;;;;10.95;7.43;;;22.80;99.90;;;;;;5018692;28;20682;-48
2021/08/13 08:20:00;;;;;;;9.23;8.15;;;22.90;99.90;;;;;;5020772;28;20258;-46
2021/08/13 08:22:28;;;;;;;9.65;8.05;;;23.00;99.90;;;;;;5024578;28;20295;-45
2021/08/13 08:24:55;;;;;;;8.27;7.47;;;23.00;99.90;;;;;;5004649;28;20228;-45
2021/08/13 08:27:21;;;;;;;10.15;7.35;;;23.10;99.90;;;;;;5024133;28;20203;-45
2021/08/13 08:29:48;;;;;;;9.75;7.28;;;23.10;99.90;;;;;;5019405;28;20223;-50
2021/08/13 08:32:14;;;;;;;9.00;6.65;;;23.20;99.90;;;;;;5019148;28;20219;-47
2021/08/13 08:34:41;;;;;;;8.20;7.47;;;23.20;99.90;;;;;;5016768;28;20208;-51
2021/08/13 08:37:10;;;;;;;8.30;7.47;;;23.30;99.90;;;;;;5022597;28;20195;-45
2021/08/13 08:39:39;;;;;;;8.15;7.35;;;23.40;99.90;;;;;;5007063;28;20219;-51
2021/08/13 08:42:12;;;;;;;8.57;7.45;;;23.40;99.90;;;;;;5013986;28;20215;-46
2021/08/13 08:44:39;;;;;;;8.38;7.55;;;23.50;99.90;;;;;;5021718;28;20295;-47
2021/08/13 08:47:06;;;;;;;8.35;7.55;;;23.50;99.90;;;;;;5016503;28;20298;-45
2021/08/13 08:49:33;;;;;;;9.23;8.32;;;23.50;99.90;;;;;;5023082;28;20228;-48
2021/08/13 08:52:00;;;;;;;8.45;7.53;;;23.60;99.90;;;;;;5020605;28;20257;-45
2021/08/13 08:54:28;;;;;;;9.02;7.82;;;23.60;99.90;;;;;;5008805;28;20223;-45
2021/08/13 08:56:57;;;;;;;9.80;8.80;;;23.70;99.90;;;;;;5019131;28;20195;-45
2021/08/13 08:59:24;;;;;;;8.25;7.45;;;23.70;99.90;;;;;;5023780;28;20717;-47
2021/08/13 09:01:51;;;;;;;10.35;8.40;;;23.80;99.90;;;;;;5010577;28;20922;-45
2021/08/13 09:04:17;;;;;;;9.23;8.23;;;23.80;99.90;;;;;;5018329;28;20670;-46
2021/08/13 09:06:44;;;;;;;9.57;8.70;;;23.80;99.90;;;;;;5020730;28;20192;-49
2021/08/13 09:09:11;;;;;;;10.32;9.20;;;23.90;99.90;;;;;;5006531;28;20250;-45
2021/08/13 09:11:41;;;;;;;10.77;7.72;;;23.90;99.90;;;;;;5018548;28;20218;-47
2021/08/13 09:14:11;;;;;;;9.93;8.32;;;23.80;99.90;;;;;;5021359;28;20191;-46
2021/08/13 09:16:38;;;;;;;11.60;6.53;;;23.90;99.90;;;;;;5022160;28;20203;-50
2021/08/13 09:19:06;;;;;;;9.32;7.68;;;23.90;99.90;;;;;;5015932;28;20289;-45
2021/08/13 09:21:34;;;;;;;8.40;7.60;;;24.00;99.90;;;;;;5023014;28;20203;-47
2021/08/13 09:24:08;;;;;;;8.80;7.10;;;24.10;99.90;;;;;;5020518;28;20196;-45
2021/08/13 09:26:41;;;;;;;9.00;7.85;;;24.20;99.90;;;;;;5007050;28;20223;-51
2021/08/13 09:29:10;;;;;;;8.68;7.78;;;24.20;99.90;;;;;;5013808;28;21030;-45
2021/08/13 09:31:53;;;;;;;8.82;7.90;;;24.20;99.90;;;;;;5001541;28;20188;-47
2021/08/13 09:34:30;;;;;;;9.07;7.60;;;24.20;99.90;;;;;;5005260;28;20560;-49
2021/08/13 09:36:57;;;;;;;9.38;7.72;;;24.30;99.90;;;;;;5015471;28;20203;-46
2021/08/13 09:39:26;;;;;;;10.55;7.75;;;24.30;99.90;;;;;;5022720;28;20677;-46
2021/08/13 09:41:55;;;;;;;9.18;8.20;;;24.40;99.90;;;;;;5004022;28;20199;-45
2021/08/13 09:44:27;;;;;;;9.95;7.05;;;24.50;99.90;;;;;;5022732;28;20654;-45
2021/08/13 09:46:58;;;;;;;10.68;7.72;;;24.50;99.90;;;;;;5001582;28;20773;-48
2021/08/13 09:49:26;;;;;;;8.63;7.03;;;24.60;99.90;;;;;;5022992;28;20219;-48
2021/08/13 09:51:53;;;;;;;7.57;6.80;;;24.60;99.90;;;;;;4995882;28;20990;-48
2021/08/13 09:54:27;;;;;;;9.77;7.72;;;24.70;99.90;;;;;;5027335;28;20203;-45
2021/08/13 09:56:54;;;;;;;9.27;8.25;;;24.70;99.90;;;;;;5007336;28;20207;-47
2021/08/13 09:59:21;;;;;;;9.38;7.88;;;24.80;99.90;;;;;;5008639;28;20612;-48
2021/08/13 10:01:50;;;;;;;7.57;6.85;;;24.90;99.90;;;;;;5023153;28;20192;-49
2021/08/13 10:04:18;;;;;;;9.13;7.70;;;25.00;99.90;;;;;;5009213;28;20196;-45
2021/08/13 10:06:47;;;;;;;8.80;6.85;;;25.00;99.90;;;;;;5005215;28;20199;-50
2021/08/13 10:09:24;;;;;;;7.32;6.63;;;25.00;99.90;;;;;;5008589;28;20251;-47
2021/08/13 10:11:59;;;;;;;8.38;7.57;;;25.00;99.90;;;;;;4989078;28;22680;-47
2021/08/13 10:14:33;;;;;;;9.27;7.22;;;25.00;99.90;;;;;;5008714;28;20285;-45
2021/08/13 10:17:10;;;;;;;10.07;7.35;;;25.10;99.90;;;;;;5005894;28;20226;-48
2021/08/13 10:19:39;;;;;;;9.63;7.13;;;25.00;99.90;;;;;;5007293;28;20235;-48
2021/08/13 10:22:06;;;;;;;7.50;6.80;;;25.00;99.90;;;;;;5001877;28;20212;-48
2021/08/13 10:24:35;;;;;;;7.15;6.47;;;24.90;99.90;;;;;;5008156;28;20187;-48
2021/08/13 10:27:03;;;;;;;7.30;6.60;;;24.90;99.90;;;;;;4990670;28;24991;-45
2021/08/13 10:29:31;;;;;;;6.80;6.10;;;25.00;99.90;;;;;;5007289;28;20231;-49
2021/08/13 10:31:58;;;;;;;10.48;7.18;;;25.10;99.90;;;;;;5004811;28;20195;-45
2021/08/13 10:34:27;;;;;;;7.82;7.03;;;25.10;99.90;;;;;;5007900;28;20557;-46
2021/08/13 10:36:54;;;;;;;7.53;6.32;;;25.20;99.90;;;;;;5004551;28;20192;-50
2021/08/13 10:39:23;;;;;;;7.38;6.68;;;25.20;99.90;;;;;;5003145;28;20212;-45
2021/08/13 10:41:54;;;;;;;7.22;6.53;;;25.30;99.90;;;;;;5022180;28;20286;-48
2021/08/13 10:44:28;;;;;;;7.95;6.55;;;25.40;99.90;;;;;;4992972;28;20222;-48
2021/08/13 10:47:00;;;;;;;8.20;6.57;;;25.40;99.90;;;;;;5004401;28;20184;-45
2021/08/13 10:49:28;;;;;;;7.70;6.63;;;25.50;99.90;;;;;;5025693;28;20216;-45
2021/08/13 10:52:03;;;;;;;6.70;6.05;;;25.50;99.90;;;;;;5004377;28;20180;-46
2021/08/13 10:54:41;;;;;;;7.80;6.55;;;25.40;99.90;;;;;;5020919;28;20652;-50
2021/08/13 10:57:10;;;;;;;6.53;5.93;;;25.40;99.90;;;;;;5007034;28;20219;-45
2021/08/13 11:00:04;;;;;;;7.07;6.28;;;25.40;99.90;;;;;;4990777;28;20792;-47
2021/08/13 11:02:33;;;;;;;9.25;6.32;;;25.50;99.90;;;;;;4968262;28;20568;-48
2021/08/13 11:05:04;;;;;;;6.82;6.07;;;25.60;99.90;;;;;;5005357;28;20238;-45
2021/08/13 11:07:56;;;;;;;8.07;6.25;;;25.60;99.90;;;;;;5007659;28;20700;-48
2021/08/13 11:10:56;;;;;;;6.75;5.93;;;25.80;99.90;;;;;;5002657;28;20754;-47
2021/08/13 11:13:24;;;;;;;6.85;6.20;;;25.80;99.90;;;;;;5007498;28;20585;-47
2021/08/13 11:15:56;;;;;;;7.00;6.40;;;25.80;99.90;;;;;;4988947;28;20199;-46
2021/08/13 11:18:35;;;;;;;8.25;6.55;;;25.80;99.90;;;;;;5007585;28;20298;-49
2021/08/13 11:21:09;;;;;;;8.38;5.63;;;25.80;99.90;;;;;;5005545;28;20424;-47
2021/08/13 11:23:57;;;;;;;6.85;6.28;;;25.80;99.90;;;;;;5006315;28;20406;-51
2021/08/13 11:26:58;;;;;;;6.60;6.00;;;25.80;99.90;;;;;;5002697;28;20222;-45
2021/08/13 11:29:34;;;;;;;7.38;6.70;;;25.80;99.90;;;;;;5006319;28;20274;-46
2021/08/13 11:32:09;;;;;;;6.28;5.68;;;25.80;99.90;;;;;;4999270;28;20188;-45
2021/08/13 11:34:43;;;;;;;7.25;6.35;;;25.80;99.90;;;;;;5005353;28;20200;-46
2021/08/13 11:37:31;;;;;;;7.30;6.32;;;25.90;99.90;;;;;;5006061;28;20195;-45
2021/08/13 11:39:59;;;;;;;7.10;6.43;;;26.00;99.90;;;;;;4997786;28;20224;-45
2021/08/13 11:42:30;;;;;;;6.07;5.43;;;26.00;99.90;;;;;;5007589;28;20215;-45
2021/08/13 11:44:58;;;;;;;6.20;5.68;;;26.00;99.90;;;;;;5003527;28;20191;-45
2021/08/13 11:47:25;;;;;;;7.78;7.07;;;26.00;99.90;;;;;;4991757;28;20294;-47
2021/08/13 11:49:52;;;;;;;7.85;6.25;;;26.00;99.90;;;;;;5002304;28;20215;-45
2021/08/13 11:52:21;;;;;;;9.88;6.18;;;26.10;99.90;;;;;;5007228;28;20196;-47
2021/08/13 11:54:49;;;;;;;7.32;6.63;;;26.00;99.90;;;;;;5020653;28;20192;-52
2021/08/13 11:57:17;;;;;;;8.73;6.80;;;25.90;99.90;;;;;;5019814;28;20257;-45
2021/08/13 11:59:44;;;;;;;7.30;6.47;;;25.90;99.90;;;;;;5021855;28;20208;-47
2021/08/13 12:02:11;;;;;;;8.32;6.63;;;26.00;99.90;;;;;;4990860;28;20204;-45
2021/08/13 12:04:37;;;;;;;10.15;6.85;;;26.00;99.90;;;;;;5005279;28;20820;-48
2021/08/13 12:07:06;;;;;;;6.53;6.03;;;26.00;99.90;;;;;;5021861;28;20181;-47
2021/08/13 12:09:37;;;;;;;7.80;6.70;;;26.00;99.80;;;;;;5005780;28;20315;-47
2021/08/13 12:12:08;;;;;;;7.90;6.78;;;26.10;99.90;;;;;;4999683;28;20208;-47
2021/08/13 12:14:36;;;;;;;8.13;7.07;;;26.30;99.90;;;;;;4997379;28;20296;-46
2021/08/13 12:17:04;;;;;;;8.00;6.47;;;26.50;99.30;;;;;;5006327;28;20215;-47
2021/08/13 12:19:33;;;;;;;7.18;6.50;;;26.50;99.80;;;;;;5005999;28;20216;-48
2021/08/13 12:22:02;;;;;;;7.88;7.07;;;26.50;99.60;;;;;;5002903;28;20939;-45
2021/08/13 12:24:33;;;;;;;7.47;6.75;;;26.50;99.60;;;;;;4985064;28;20641;-46
2021/08/13 12:27:06;;;;;;;8.15;6.85;;;26.40;99.70;;;;;;5003650;28;20212;-46
2021/08/13 12:29:34;;;;;;;8.02;6.65;;;26.50;99.90;;;;;;4985421;28;20225;-49
2021/08/13 12:32:02;;;;;;;7.25;6.63;;;26.50;99.60;;;;;;5018095;28;20184;-45
2021/08/13 12:34:31;;;;;;;7.32;6.07;;;26.60;99.20;;;;;;5001162;28;20208;-48
2021/08/13 12:37:03;;;;;;;10.23;7.75;;;26.60;99.70;;;;;;5003910;28;20271;-45
2021/08/13 12:39:31;;;;;;;7.40;6.65;;;26.50;99.30;;;;;;5004333;28;20219;-46
2021/08/13 12:41:58;;;;;;;7.65;6.95;;;26.50;99.90;;;;;;5003026;28;20207;-44
2021/08/13 12:44:26;;;;;;;8.10;6.90;;;26.60;99.60;;;;;;5000683;28;20211;-47
2021/08/13 12:46:54;;;;;;;7.97;7.28;;;26.50;98.40;;;;;;4991550;28;20408;-46